Airfield :
LOGIN :

Register | Disclaimer

   EN    FR    IT 

 










Legend :    VFR   Marginal VFR   IFR   Intensive IFR   Very Intensive IFR
Visi :
Ceiling :
>= 8 km
>= 3000ft
5 to 8 km
1000 to 3000 ft
1500m to 5 km
500 to 1000 ft
800 to 1500m
200 to 500 ft
< 800m
< 200 ft
Symbols :   Thunderstorms  Fog  Heavy snow  Heavy precipitations  Wind > 20 kt
SIGMETs :     Misc.  Thunderstorms  Icing  Turbulence  Mountain Waves  Volcanic Ashes






- Airport Elevation : 609 ft
- IATA code : BJZ


LEBZ - Badajoz

CURRENT METAR :
  • 240930Z 09004KT 010V150 CAVOK 18/06 Q1019

EXPIRED METARs :
  • 240900Z 06006KT 010V110 CAVOK 17/07 Q1019
  • 240830Z 06004KT 020V100 CAVOK 16/06 Q1019
  • 240800Z 04004KT 010V090 CAVOK 14/06 Q1019
  • 240730Z VRB02KT CAVOK 13/07 Q1019
  • 240700Z 36003KT CAVOK 10/08 Q1019
  • 240630Z VRB01KT CAVOK 10/06 Q1019
  • 240600Z VRB01KT CAVOK 08/06 Q1018
  • 240530Z 26004KT CAVOK 09/06 Q1018
  • 240500Z 28003KT CAVOK 08/07 Q1018

TAF TAF LEBZ
Valid from the 24 at 09:00 until the 25 at 09:00 UTC


240800Z 2409/2509 VRB02KT CAVOK TX24/2415Z TN10/2506Z
PROB40
TEMPO 2414/2420 29010KT



MET'MAP, your aeronautical weather chart ! - Copyright ORBIFLY December 2007 - Disclaimer

ORBIFLY MET'MAP TEAM :

Programming & Development : Alexandra Zaïnal
Original concept : Baudouin d'Aumeries
Technical & hardware support : Manuel Goepfert
Assistance : Marc-Olivier Méhu




SOURCES & CREDITS :

   NOAA